Time;durP1;ratioP1;P1;durP2;ratioP2;P2;SDS_P1;SDS_P2;PMS_P1;PMS_P2;Temp;Humidity;BMP_temperature;BMP_pressure;BME280_temperature;BME280_humidity;BME280_pressure;Samples;Min_cycle;Max_cycle;Signal;HPM_P1;HPM_P2
2023/07/17 00:01:25;;;;;;;;;;;;;;;15.61;55.96;101044.84;4998486;28;1231;-55
2023/07/17 00:03:50;;;;;;;;;;;;;;;15.55;56.03;101035.75;4998610;28;1973;-54
2023/07/17 00:06:16;;;;;;;;;;;;;;;15.62;55.95;101041.03;4998439;28;1080;-54
2023/07/17 00:08:42;;;;;;;;;;;;;;;15.58;56.10;101037.97;4997914;28;1060;-55
2023/07/17 00:11:07;;;;;;;;;;;;;;;15.53;55.99;101029.72;4998061;28;1390;-55
2023/07/17 00:13:32;;;;;;;;;;;;;;;15.55;56.11;101030.28;4998402;28;1067;-54
2023/07/17 00:15:58;;;;;;;;;;;;;;;15.56;56.14;101026.44;4998674;28;1151;-54
2023/07/17 00:18:23;;;;;;;;;;;;;;;15.60;55.79;101033.06;4998434;28;1136;-55
2023/07/17 00:20:49;;;;;;;;;;;;;;;15.59;55.96;101019.63;4997912;28;1227;-54
2023/07/17 00:23:14;;;;;;;;;;;;;;;15.56;55.90;101023.72;4997503;28;1906;-54
2023/07/17 00:25:40;;;;;;;;;;;;;;;15.56;55.76;101019.03;4998611;28;1155;-54
2023/07/17 00:28:05;;;;;;;;;;;;;;;15.55;56.16;101019.31;4998184;28;1115;-54
2023/07/17 00:30:31;;;;;;;;;;;;;;;15.58;55.96;101024.25;4996810;28;1068;-54
2023/07/17 00:32:56;;;;;;;;;;;;;;;15.54;56.13;101017.66;4996631;28;1079;-54
2023/07/17 00:35:22;;;;;;;;;;;;;;;15.56;56.04;101026.44;4996592;28;1583;-54
2023/07/17 00:37:47;;;;;;;;;;;;;;;15.54;56.18;101034.94;4996572;28;1279;-54
2023/07/17 00:40:13;;;;;;;;;;;;;;;15.53;56.09;101026.97;4996489;28;1123;-54
2023/07/17 00:42:38;;;;;;;;;;;;;;;15.52;56.14;101023.38;4997696;28;1906;-53
2023/07/17 00:45:05;;;;;;;;;;;;;;;15.52;56.12;101025.31;4996616;28;1091;-56
2023/07/17 00:47:31;;;;;;;;;;;;;;;15.49;56.19;101031.31;4997658;28;1128;-55
2023/07/17 00:49:58;;;;;;;;;;;;;;;15.53;55.91;101026.97;4997784;28;1138;-54
2023/07/17 00:52:24;;;;;;;;;;;;;;;15.54;56.19;101029.47;4995962;28;1206;-54
2023/07/17 00:54:50;;;;;;;;;;;;;;;15.53;55.90;101026.97;4996206;28;1092;-55
2023/07/17 00:57:15;;;;;;;;;;;;;;;15.48;56.29;101021.44;4997810;28;1179;-55
2023/07/17 00:59:41;;;;;;;;;;;;;;;15.49;55.97;101017.63;4997503;28;840;-56
2023/07/17 01:02:08;;;;;;;;;;;;;;;15.49;56.02;101023.91;4996265;28;1060;-55
2023/07/17 01:04:35;;;;;;;;;;;;;;;15.48;55.94;101016.78;4997538;28;1906;-55
2023/07/17 01:07:01;;;;;;;;;;;;;;;15.47;55.97;101022.53;4997298;28;1075;-55
2023/07/17 01:09:27;;;;;;;;;;;;;;;15.45;56.08;101019.22;4996176;28;1464;-55
2023/07/17 01:11:53;;;;;;;;;;;;;;;15.50;55.93;101032.97;4979815;28;1200;-55
2023/07/17 01:14:19;;;;;;;;;;;;;;;15.45;55.99;101022.78;4995857;28;1941;-54
2023/07/17 01:16:45;;;;;;;;;;;;;;;15.45;56.09;101019.22;4996220;28;1406;-54
2023/07/17 01:19:11;;;;;;;;;;;;;;;15.40;55.83;101026.31;4996290;28;1060;-55
2023/07/17 01:21:38;;;;;;;;;;;;;;;15.44;56.13;101017.56;4997237;28;1120;-55
2023/07/17 01:24:04;;;;;;;;;;;;;;;15.44;55.73;101025.78;4996392;28;1902;-55
2023/07/17 01:26:30;;;;;;;;;;;;;;;15.40;55.86;101029.06;4997296;28;1041;-55
2023/07/17 01:28:55;;;;;;;;;;;;;;;15.36;55.97;101022.44;4997471;28;1194;-55
2023/07/17 01:31:21;;;;;;;;;;;;;;;15.35;55.89;101026.25;4996907;28;1071;-55
2023/07/17 01:33:46;;;;;;;;;;;;;;;15.38;56.15;101031.22;4997057;28;1105;-55
2023/07/17 01:36:12;;;;;;;;;;;;;;;15.42;56.04;101025.19;4996652;28;1146;-56
2023/07/17 01:38:37;;;;;;;;;;;;;;;15.39;56.01;101027.38;4997146;28;1179;-56
2023/07/17 01:41:03;;;;;;;;;;;;;;;15.40;56.07;101029.06;4997207;28;1250;-55
2023/07/17 01:43:29;;;;;;;;;;;;;;;15.36;55.98;101022.44;4996663;28;1914;-55
2023/07/17 01:45:55;;;;;;;;;;;;;;;15.41;55.77;101021.66;4996982;28;1144;-56
2023/07/17 01:48:20;;;;;;;;;;;;;;;15.38;55.99;101027.66;4997402;28;877;-55
2023/07/17 01:50:46;;;;;;;;;;;;;;;15.34;56.14;101016.38;4997270;28;1005;-54
2023/07/17 01:53:12;;;;;;;;;;;;;;;15.38;55.73;101022.97;4993990;28;1659;-57
2023/07/17 01:55:38;;;;;;;;;;;;;;;15.33;55.99;101022.97;4998509;28;1655;-56
2023/07/17 01:58:03;;;;;;;;;;;;;;;15.35;55.90;101029.00;4997088;28;1059;-55
2023/07/17 02:00:29;;;;;;;;;;;;;;;15.37;55.84;101023.25;4996756;28;982;-55
2023/07/17 02:02:54;;;;;;;;;;;;;;;15.32;55.80;101029.50;4997154;28;1910;-56
2023/07/17 02:05:20;;;;;;;;;;;;;;;15.38;55.77;101022.97;4996503;28;1139;-55
2023/07/17 02:07:46;;;;;;;;;;;;;;;15.35;55.75;101033.66;4996577;28;1418;-55
2023/07/17 02:10:11;;;;;;;;;;;;;;;15.35;55.86;101031.72;4995615;28;1115;-55
2023/07/17 02:12:37;;;;;;;;;;;;;;;15.30;55.94;101023.44;4996533;28;1001;-55
2023/07/17 02:15:02;;;;;;;;;;;;;;;15.31;55.79;101029.78;4995489;28;1108;-56
2023/07/17 02:17:28;;;;;;;;;;;;;;;15.29;55.91;101041.00;4995337;28;1182;-54
2023/07/17 02:19:53;;;;;;;;;;;;;;;15.32;55.70;101054.16;4996688;28;1207;-55
2023/07/17 02:22:19;;;;;;;;;;;;;;;15.30;56.07;101050.84;4996771;28;1163;-56
2023/07/17 02:24:45;;;;;;;;;;;;;;;15.28;55.80;101042.06;4995719;28;1907;-56
2023/07/17 02:27:10;;;;;;;;;;;;;;;15.31;55.70;101040.75;4996729;28;1083;-56
2023/07/17 02:29:36;;;;;;;;;;;;;;;15.31;55.79;101051.69;4996435;28;1107;-56
2023/07/17 02:32:02;;;;;;;;;;;;;;;15.26;55.87;101048.88;4996734;28;1139;-55
2023/07/17 02:34:28;;;;;;;;;;;;;;;15.28;55.87;101044.81;4995292;28;1453;-55
2023/07/17 02:36:55;;;;;;;;;;;;;;;15.28;55.98;101041.22;4994479;28;2026;-55
2023/07/17 02:39:21;;;;;;;;;;;;;;;15.28;55.75;101047.56;4996613;28;1148;-55
2023/07/17 02:41:47;;;;;;;;;;;;;;;15.28;56.06;101053.03;4996672;28;1142;-57
2023/07/17 02:44:13;;;;;;;;;;;;;;;15.25;55.88;101045.34;4994988;28;1902;-55
2023/07/17 02:46:38;;;;;;;;;;;;;;;15.25;55.87;101045.34;4995146;28;1422;-55
2023/07/17 02:49:06;;;;;;;;;;;;;;;15.25;56.12;101049.97;4996290;28;1041;-55
2023/07/17 02:51:31;;;;;;;;;;;;;;;15.22;56.14;101049.41;4996287;28;1135;-55
2023/07/17 02:53:56;;;;;;;;;;;;;;;15.21;55.96;101052.41;4997192;28;1124;-56
2023/07/17 02:56:23;;;;;;;;;;;;;;;15.25;56.04;101048.06;4999828;28;1178;-54
2023/07/17 02:58:52;;;;;;;;;;;;;;;15.25;55.90;101053.56;4998690;28;1175;-54
2023/07/17 03:01:17;;;;;;;;;;;;;;;15.22;56.22;101049.41;4987790;28;1183;-53
2023/07/17 03:03:43;;;;;;;;;;;;;;;15.21;56.15;101046.94;4999543;28;1898;-54
2023/07/17 03:06:08;;;;;;;;;;;;;;;15.22;55.81;101054.91;4997876;28;1167;-58
2023/07/17 03:08:34;;;;;;;;;;;;;;;15.23;55.73;101050.22;4998303;28;1127;-57
2023/07/17 03:11:03;;;;;;;;;;;;;;;15.26;56.09;101048.88;4998257;28;1219;-55
2023/07/17 03:13:29;;;;;;;;;;;;;;;15.21;56.09;101055.97;4999728;28;1068;-55
2023/07/17 03:15:55;;;;;;;;;;;;;;;15.22;55.76;101051.31;4998092;28;1145;-58
2023/07/17 03:18:21;;;;;;;;;;;;;;;15.22;55.97;101049.41;4998450;28;1288;-58
2023/07/17 03:20:46;;;;;;;;;;;;;;;15.20;55.87;101050.75;4999033;28;1163;-59
2023/07/17 03:23:12;;;;;;;;;;;;;;;15.24;55.93;101057.38;4999280;28;1974;-59
2023/07/17 03:25:40;;;;;;;;;;;;;;;15.21;56.13;101055.16;4999257;28;1230;-58
2023/07/17 03:28:06;;;;;;;;;;;;;;;15.22;56.16;101065.84;4998725;28;1138;-58
2023/07/17 03:30:32;;;;;;;;;;;;;;;15.20;56.09;101054.31;4999437;28;1176;-57
2023/07/17 03:32:57;;;;;;;;;;;;;;;15.24;56.02;101062.84;4999484;28;1096;-56
2023/07/17 03:35:23;;;;;;;;;;;;;;;15.22;56.11;101063.13;4999287;28;1083;-57
2023/07/17 03:37:48;;;;;;;;;;;;;;;15.22;55.98;101062.25;4999045;28;1127;-58
2023/07/17 03:40:14;;;;;;;;;;;;;;;15.17;56.38;101071.25;4997987;28;1299;-53
2023/07/17 03:42:40;;;;;;;;;;;;;;;15.24;56.12;101071.06;4997706;28;1182;-57
2023/07/17 03:45:06;;;;;;;;;;;;;;;15.20;56.37;101069.94;4997741;28;2015;-56
2023/07/17 03:47:35;;;;;;;;;;;;;;;15.28;55.90;101079.59;4996903;28;1574;-56
2023/07/17 03:50:01;;;;;;;;;;;;;;;15.22;56.03;101075.97;4997637;28;1139;-55
2023/07/17 03:52:27;;;;;;;;;;;;;;;15.23;56.15;101073.00;4997669;28;1199;-54
2023/07/17 03:54:52;;;;;;;;;;;;;;;15.24;56.06;101073.81;4998658;28;1060;-55
2023/07/17 03:57:18;;;;;;;;;;;;;;;15.25;56.14;101069.16;4998267;28;1099;-56
2023/07/17 03:59:48;;;;;;;;;;;;;;;15.25;56.28;101063.66;4996374;28;1222;-56
2023/07/17 04:02:14;;;;;;;;;;;;;;;15.21;56.17;101061.44;4997358;28;1522;-58
2023/07/17 04:04:40;;;;;;;;;;;;;;;15.31;56.37;101063.47;4996953;28;1898;-56
2023/07/17 04:07:05;;;;;;;;;;;;;;;15.30;56.32;101066.47;4998064;28;1172;-57
2023/07/17 04:09:31;;;;;;;;;;;;;;;16.49;56.59;101066.34;4998321;28;1297;-58
2023/07/17 04:11:56;;;;;;;;;;;;;;;16.70;56.80;101072.78;4996830;28;1143;-56
2023/07/17 04:14:22;;;;;;;;;;;;;;;16.26;57.31;101067.59;4997493;28;1187;-57
2023/07/17 04:16:48;;;;;;;;;;;;;;;16.15;56.85;101065.88;4998442;28;1183;-58
2023/07/17 04:19:13;;;;;;;;;;;;;;;16.12;56.48;101069.13;4996570;28;1218;-56
2023/07/17 04:21:39;;;;;;;;;;;;;;;15.98;56.26;101066.84;4997980;28;1140;-56
2023/07/17 04:24:05;;;;;;;;;;;;;;;16.00;55.77;101064.66;4996424;28;1967;-58
2023/07/17 04:26:40;;;;;;;;;;;;;;;15.98;55.72;101072.34;4996434;28;2164;-57
2023/07/17 04:29:07;;;;;;;;;;;;;;;15.95;55.63;101067.38;5013289;28;1301;-58
2023/07/17 04:31:33;;;;;;;;;;;;;;;15.94;55.45;101067.66;4998175;28;1176;-56
2023/07/17 04:34:00;;;;;;;;;;;;;;;15.91;55.41;101061.59;4996792;28;1157;-58
2023/07/17 04:36:25;;;;;;;;;;;;;;;15.90;55.07;101067.34;4996516;28;1209;-56
2023/07/17 04:38:52;;;;;;;;;;;;;;;15.91;54.99;101060.78;4996593;28;1171;-55
2023/07/17 04:41:18;;;;;;;;;;;;;;;15.87;55.09;101063.19;4996515;28;1115;-56
2023/07/17 04:43:43;;;;;;;;;;;;;;;15.85;55.25;101059.91;4996615;28;1906;-55
2023/07/17 04:46:09;;;;;;;;;;;;;;;15.86;55.02;101061.53;4996241;28;1134;-55
2023/07/17 04:48:35;;;;;;;;;;;;;;;16.68;56.40;101060.44;4995782;28;1186;-56
2023/07/17 04:51:02;;;;;;;;;;;;;;;16.58;58.73;101058.47;4980334;28;1111;-55
2023/07/17 04:53:27;;;;;;;;;;;;;;;17.20;58.51;101069.72;4996639;28;1206;-58
2023/07/17 04:55:54;;;;;;;;;;;;;;;16.40;57.44;101060.56;4996281;28;1272;-57
2023/07/17 04:58:21;;;;;;;;;;;;;;;16.29;54.94;101061.59;4996460;28;1238;-59
2023/07/17 05:00:49;;;;;;;;;;;;;;;16.20;53.51;101058.50;4997821;28;1275;-57
2023/07/17 05:03:16;;;;;;;;;;;;;;;16.13;52.36;101060.66;4996048;28;1915;-56
2023/07/17 05:05:46;;;;;;;;;;;;;;;16.14;51.80;101069.72;4997411;28;1210;-55
2023/07/17 05:08:12;;;;;;;;;;;;;;;16.06;51.00;101062.78;4997242;28;1033;-58
2023/07/17 05:10:37;;;;;;;;;;;;;;;16.12;50.36;101069.97;4995849;28;1332;-56
2023/07/17 05:13:03;;;;;;;;;;;;;;;16.13;49.95;101068.06;4997091;28;1020;-55
2023/07/17 05:15:28;;;;;;;;;;;;;;;15.98;50.15;101066.03;4998080;28;1119;-55
2023/07/17 05:17:54;;;;;;;;;;;;;;;16.08;49.42;101063.38;4995530;28;1192;-56
2023/07/17 05:20:20;;;;;;;;;;;;;;;16.07;49.24;101070.78;4995576;28;1254;-57
2023/07/17 05:22:45;;;;;;;;;;;;;;;15.99;49.21;101060.28;4997131;28;1969;-57
2023/07/17 05:25:12;;;;;;;;;;;;;;;16.08;49.06;101066.91;4996939;28;890;-59
2023/07/17 05:27:38;;;;;;;;;;;;;;;16.14;48.95;101070.53;4995679;28;1281;-56
2023/07/17 05:30:04;;;;;;;;;;;;;;;16.08;49.00;101064.19;4997294;28;1111;-56
2023/07/17 05:32:30;;;;;;;;;;;;;;;16.12;48.86;101074.63;4995527;28;1351;-57
2023/07/17 05:34:57;;;;;;;;;;;;;;;16.07;48.91;101070.78;4996046;28;1175;-56
2023/07/17 05:37:23;;;;;;;;;;;;;;;16.09;48.62;101073.25;4996926;28;1111;-57
2023/07/17 05:39:51;;;;;;;;;;;;;;;16.16;48.39;101075.75;4980009;28;1259;-55
2023/07/17 05:42:17;;;;;;;;;;;;;;;16.12;48.49;101075.47;4994684;28;1285;-59
2023/07/17 05:44:43;;;;;;;;;;;;;;;16.07;48.71;101079.00;4995232;28;1894;-56
2023/07/17 05:47:10;;;;;;;;;;;;;;;16.15;48.19;101079.59;4994982;28;1119;-58
2023/07/17 05:49:36;;;;;;;;;;;;;;;16.18;48.06;101071.66;4994858;28;989;-57
2023/07/17 05:52:02;;;;;;;;;;;;;;;16.18;48.56;101071.66;4995811;28;1119;-56
2023/07/17 05:54:28;;;;;;;;;;;;;;;16.25;48.54;101071.44;4995213;28;1275;-57
2023/07/17 05:56:54;;;;;;;;;;;;;;;16.21;48.28;101082.09;4994662;28;1214;-55
2023/07/17 05:59:20;;;;;;;;;;;;;;;16.16;48.39;101084.81;4995110;28;1122;-54
2023/07/17 06:01:45;;;;;;;;;;;;;;;16.28;48.55;101087.38;4995988;28;1048;-57
2023/07/17 06:04:11;;;;;;;;;;;;;;;16.38;50.13;101086.59;4996193;28;1902;-54
2023/07/17 06:06:36;;;;;;;;;;;;;;;16.42;49.32;101088.56;4995752;28;1067;-58
2023/07/17 06:09:02;;;;;;;;;;;;;;;16.40;49.18;101081.69;4995797;28;1148;-57
2023/07/17 06:11:28;;;;;;;;;;;;;;;16.47;49.37;101086.97;4996535;28;1135;-59
2023/07/17 06:13:53;;;;;;;;;;;;;;;16.41;48.86;101081.44;4995618;28;847;-60
2023/07/17 06:16:19;;;;;;;;;;;;;;;16.30;48.81;101092.59;4995848;28;1068;-57
2023/07/17 06:18:44;;;;;;;;;;;;;;;16.40;48.72;101078.94;4996198;28;1112;-58
2023/07/17 06:21:10;;;;;;;;;;;;;;;16.45;48.21;101084.44;4996034;28;1172;-61
2023/07/17 06:23:35;;;;;;;;;;;;;;;16.36;48.37;101084.13;4996196;28;1961;-60
2023/07/17 06:26:01;;;;;;;;;;;;;;;16.45;47.97;101083.63;4995493;28;1067;-60
2023/07/17 06:28:27;;;;;;;;;;;;;;;16.48;48.18;101080.34;4995750;28;1084;-58
2023/07/17 06:30:53;;;;;;;;;;;;;;;16.49;48.02;101082.00;4999668;28;1203;-55
2023/07/17 06:33:19;;;;;;;;;;;;;;;16.36;48.51;101078.63;5000199;28;1140;-55
2023/07/17 06:35:45;;;;;;;;;;;;;;;16.47;48.04;101073.22;4999771;28;1101;-55
2023/07/17 06:38:10;;;;;;;;;;;;;;;16.46;48.18;101082.56;4999376;28;857;-54
2023/07/17 06:40:37;;;;;;;;;;;;;;;16.47;48.55;101079.53;4999782;28;942;-56
2023/07/17 06:43:02;;;;;;;;;;;;;;;16.45;48.39;101072.66;4993229;28;1970;-54
2023/07/17 06:45:28;;;;;;;;;;;;;;;16.51;48.44;101068.84;4998394;28;1394;-53
2023/07/17 06:47:53;;;;;;;;;;;;;;;16.45;48.18;101072.66;4997827;28;858;-55
2023/07/17 06:50:19;;;;;;;;;;;;;;;16.50;48.58;101061.72;4997929;28;910;-54
2023/07/17 06:52:44;;;;;;;;;;;;;;;16.55;48.45;101061.72;4998252;28;993;-54
2023/07/17 06:55:11;;;;;;;;;;;;;;;16.51;48.25;101057.84;4998398;28;1112;-54
2023/07/17 06:57:37;;;;;;;;;;;;;;;16.55;48.35;101070.81;4999136;28;1016;-54
2023/07/17 07:00:05;;;;;;;;;;;;;;;16.54;48.43;101073.81;4998642;28;1159;-52
2023/07/17 07:02:31;;;;;;;;;;;;;;;16.52;48.47;101067.75;4997755;28;1056;-52
2023/07/17 07:04:56;;;;;;;;;;;;;;;16.57;48.41;101073.28;4997496;28;1914;-53
2023/07/17 07:07:22;;;;;;;;;;;;;;;16.52;48.22;101065.84;4996729;28;1428;-55
2023/07/17 07:09:47;;;;;;;;;;;;;;;16.57;48.47;101068.59;4997341;28;1214;-52
2023/07/17 07:12:13;;;;;;;;;;;;;;;16.55;48.14;101069.97;4998069;28;1024;-53
2023/07/17 07:14:38;;;;;;;;;;;;;;;16.56;48.25;101071.63;4998349;28;850;-53
2023/07/17 07:17:04;;;;;;;;;;;;;;;16.61;48.10;101063.41;4998265;28;1127;-53
2023/07/17 07:19:29;;;;;;;;;;;;;;;16.57;48.10;101068.59;4998861;28;1147;-54
2023/07/17 07:21:55;;;;;;;;;;;;;;;16.58;48.04;101061.22;4998046;28;905;-54
2023/07/17 07:24:20;;;;;;;;;;;;;;;16.65;47.83;101056.31;4998440;28;1985;-54
2023/07/17 07:26:46;;;;;;;;;;;;;;;16.62;48.20;101051.34;4996553;28;1139;-53
2023/07/17 07:29:11;;;;;;;;;;;;;;;16.67;47.75;101059.59;4997817;28;961;-53
2023/07/17 07:31:37;;;;;;;;;;;;;;;16.60;47.75;101062.56;4997687;28;1074;-53
2023/07/17 07:34:02;;;;;;;;;;;;;;;16.72;47.76;101061.56;4997610;28;1039;-52
2023/07/17 07:36:28;;;;;;;;;;;;;;;16.68;47.61;101058.50;4997767;28;1036;-54
2023/07/17 07:38:54;;;;;;;;;;;;;;;16.70;47.77;101063.72;4998521;28;900;-53
2023/07/17 07:41:19;;;;;;;;;;;;;;;16.75;47.61;101067.31;4998041;28;1072;-53
2023/07/17 07:43:45;;;;;;;;;;;;;;;16.67;47.54;101062.34;4998089;28;1984;-52
2023/07/17 07:46:10;;;;;;;;;;;;;;;16.74;47.23;101060.16;4998067;28;1056;-51
2023/07/17 07:48:36;;;;;;;;;;;;;;;16.70;47.58;101070.03;4997807;28;1015;-52
2023/07/17 07:51:02;;;;;;;;;;;;;;;16.80;47.76;101071.19;4998007;28;1051;-54
2023/07/17 07:53:27;;;;;;;;;;;;;;;16.67;48.05;101070.56;4997970;28;1191;-53
2023/07/17 07:55:53;;;;;;;;;;;;;;;16.70;48.79;101078.28;4997276;28;1017;-52
2023/07/17 07:58:18;;;;;;;;;;;;;;;16.71;48.49;101074.44;4998171;28;1083;-54
2023/07/17 08:00:44;;;;;;;;;;;;;;;16.73;48.43;101080.50;4997583;28;1156;-54
2023/07/17 08:03:09;;;;;;;;;;;;;;;16.71;48.46;101079.94;4997249;28;1911;-54
2023/07/17 08:05:35;;;;;;;;;;;;;;;16.81;47.80;101079.16;4997469;28;1199;-54
2023/07/17 08:08:00;;;;;;;;;;;;;;;16.80;48.11;101082.19;4997312;28;1158;-55
2023/07/17 08:10:26;;;;;;;;;;;;;;;16.75;47.75;101083.81;4998150;28;988;-54
2023/07/17 08:12:51;;;;;;;;;;;;;;;16.80;47.77;101077.50;4997722;28;1098;-55
2023/07/17 08:15:17;;;;;;;;;;;;;;;16.82;47.73;101080.00;4997032;28;1119;-56
2023/07/17 08:17:42;;;;;;;;;;;;;;;16.72;48.05;101070.63;4997907;28;1104;-59
2023/07/17 08:20:08;;;;;;;;;;;;;;;16.78;47.97;101076.94;4997413;28;1051;-56
2023/07/17 08:22:33;;;;;;;;;;;;;;;16.81;47.98;101078.34;4997719;28;1091;-59
2023/07/17 08:24:59;;;;;;;;;;;;;;;16.76;48.03;101076.41;4997298;28;1914;-57
2023/07/17 08:27:25;;;;;;;;;;;;;;;16.79;47.83;101081.34;4993042;28;1304;-57
2023/07/17 08:29:50;;;;;;;;;;;;;;;16.83;47.75;101082.47;4996583;28;1028;-56
2023/07/17 08:32:16;;;;;;;;;;;;;;;16.86;47.52;101084.69;4996404;28;2301;-57
2023/07/17 08:34:41;;;;;;;;;;;;;;;16.76;47.79;101085.47;4996003;28;1852;-56
2023/07/17 08:37:07;;;;;;;;;;;;;;;16.84;47.71;101094.28;4995406;28;1403;-56
2023/07/17 08:39:32;;;;;;;;;;;;;;;16.81;48.10;101090.16;4995550;28;1004;-57
2023/07/17 08:41:58;;;;;;;;;;;;;;;16.82;48.08;101091.00;4995373;28;2130;-58
2023/07/17 08:44:23;;;;;;;;;;;;;;;16.80;47.83;101096.72;4993272;28;2054;-59
2023/07/17 08:46:50;;;;;;;;;;;;;;;16.82;47.82;101091.00;4996000;28;1152;-59
2023/07/17 08:49:16;;;;;;;;;;;;;;;16.85;47.77;101083.03;4995954;28;1778;-62
2023/07/17 08:51:42;;;;;;;;;;;;;;;16.95;47.72;101087.75;4995387;28;845;-60
2023/07/17 08:54:07;;;;;;;;;;;;;;;16.91;47.40;101090.25;4996131;28;1084;-59
2023/07/17 08:56:33;;;;;;;;;;;;;;;16.94;47.87;101086.09;4996181;28;1175;-58
2023/07/17 08:58:58;;;;;;;;;;;;;;;16.85;47.83;101088.50;4995793;28;1500;-58
2023/07/17 09:01:24;;;;;;;;;;;;;;;16.87;47.96;101091.00;4995126;28;1122;-58
2023/07/17 09:03:51;;;;;;;;;;;;;;;16.82;47.94;101077.25;4995705;28;1906;-58
2023/07/17 09:06:21;;;;;;;;;;;;;;;16.92;47.78;101089.13;4995730;28;1048;-58
2023/07/17 09:08:47;;;;;;;;;;;;;;;16.94;47.77;101083.34;4995002;28;1127;-54
2023/07/17 09:11:12;;;;;;;;;;;;;;;16.92;47.90;101071.81;4996645;28;1025;-59
2023/07/17 09:13:41;;;;;;;;;;;;;;;16.97;47.76;101076.50;4995410;28;1369;-55
2023/07/17 09:16:18;;;;;;;;;;;;;;;16.91;47.93;101072.91;4995178;28;920;-56
2023/07/17 09:18:44;;;;;;;;;;;;;;;16.90;47.80;101083.09;4988893;28;2065;-55
2023/07/17 09:21:16;;;;;;;;;;;;;;;16.90;47.92;101087.72;4995330;28;1000;-55
2023/07/17 09:23:46;;;;;;;;;;;;;;;16.99;47.71;101069.66;4995579;28;1914;-56
2023/07/17 09:26:14;;;;;;;;;;;;;;;17.02;47.52;101085.59;4995260;28;1113;-56
2023/07/17 09:28:48;;;;;;;;;;;;;;;16.91;47.81;101079.25;4986085;28;841;-54
2023/07/17 09:31:15;;;;;;;;;;;;;;;17.04;47.37;101083.41;4993000;28;997;-56
2023/07/17 09:33:40;;;;;;;;;;;;;;;17.03;47.48;101084.50;4995314;28;1020;-57
2023/07/17 09:36:08;;;;;;;;;;;;;;;17.01;47.71;101078.47;4994791;28;1012;-55
2023/07/17 09:38:34;;;;;;;;;;;;;;;16.95;47.95;101079.53;4995149;28;1106;-55
2023/07/17 09:40:59;;;;;;;;;;;;;;;17.02;47.58;101085.59;4995823;28;1016;-55
2023/07/17 09:43:30;;;;;;;;;;;;;;;16.99;47.89;101075.16;4995320;28;1919;-56
2023/07/17 09:45:58;;;;;;;;;;;;;;;16.95;47.80;101079.53;4995604;28;1076;-58
2023/07/17 09:48:24;;;;;;;;;;;;;;;17.02;47.83;101084.78;4995418;28;1203;-56
2023/07/17 09:50:49;;;;;;;;;;;;;;;17.00;47.88;101076.81;4993713;28;1020;-56
2023/07/17 09:53:15;;;;;;;;;;;;;;;17.05;47.75;101078.75;4994078;28;1024;-55
2023/07/17 09:55:41;;;;;;;;;;;;;;;17.03;47.90;101080.94;4994107;28;1135;-57
2023/07/17 09:58:06;;;;;;;;;;;;;;;16.96;48.04;101072.94;5001871;28;1024;-57
2023/07/17 10:00:32;;;;;;;;;;;;;;;16.99;47.70;101080.63;5010490;28;1022;-58
2023/07/17 10:02:57;;;;;;;;;;;;;;;17.03;47.76;101075.44;4996240;28;1918;-55
2023/07/17 10:05:23;;;;;;;;;;;;;;;17.07;47.34;101071.88;4998940;28;1044;-57
2023/07/17 10:07:48;;;;;;;;;;;;;;;17.03;47.90;101075.44;4998500;28;1237;-55
2023/07/17 10:10:14;;;;;;;;;;;;;;;17.07;47.51;101066.38;4997915;28;1044;-56
2023/07/17 10:12:39;;;;;;;;;;;;;;;17.06;47.60;101070.22;4999103;28;1032;-57
2023/07/17 10:15:05;;;;;;;;;;;;;;;17.12;47.60;101071.06;4997909;28;1187;-58
2023/07/17 10:17:32;;;;;;;;;;;;;;;17.10;47.76;101065.84;4998108;28;1890;-60
2023/07/17 10:20:08;;;;;;;;;;;;;;;17.05;47.71;101065.81;4998722;28;1084;-60
2023/07/17 10:22:35;;;;;;;;;;;;;;;17.12;47.82;101062.00;4998681;28;1164;-60
2023/07/17 10:25:09;;;;;;;;;;;;;;;17.08;47.83;101058.97;4986046;28;1980;-60
2023/07/17 10:27:36;;;;;;;;;;;;;;;17.06;47.59;101064.72;4998632;28;1055;-60
2023/07/17 10:30:01;;;;;;;;;;;;;;;17.17;47.53;101060.09;4997926;28;968;-60
2023/07/17 10:32:27;;;;;;;;;;;;;;;17.08;47.70;101062.56;5013792;28;1257;-60
2023/07/17 10:34:53;;;;;;;;;;;;;;;17.13;47.62;101058.16;4996529;28;1396;-61
2023/07/17 10:37:20;;;;;;;;;;;;;;;17.16;47.43;101058.44;4999136;28;1053;-60
2023/07/17 10:39:45;;;;;;;;;;;;;;;17.14;47.58;101071.63;4999710;28;1227;-55
2023/07/17 10:42:12;;;;;;;;;;;;;;;17.16;47.61;101063.13;4995821;28;1000;-58
2023/07/17 10:44:37;;;;;;;;;;;;;;;17.09;47.78;101055.13;4998773;28;1963;-57
2023/07/17 10:47:03;;;;;;;;;;;;;;;17.11;48.04;101050.19;4998670;28;1052;-55
2023/07/17 10:49:28;;;;;;;;;;;;;;;17.24;47.60;101048.84;4997574;28;1908;-56
2023/07/17 10:51:55;;;;;;;;;;;;;;;17.20;47.91;101056.00;4998853;28;1065;-56
2023/07/17 10:54:20;;;;;;;;;;;;;;;17.26;47.86;101035.66;4998243;28;1049;-56
2023/07/17 10:56:46;;;;;;;;;;;;;;;17.24;47.79;101043.34;4998496;28;1053;-55
2023/07/17 10:59:12;;;;;;;;;;;;;;;17.14;48.11;101046.06;4999084;28;1142;-54
2023/07/17 11:01:38;;;;;;;;;;;;;;;17.24;47.80;101043.34;4993026;28;1233;-56
2023/07/17 11:04:09;;;;;;;;;;;;;;;17.24;47.65;101035.13;4998461;28;1906;-56
2023/07/17 11:06:35;;;;;;;;;;;;;;;17.15;47.90;101033.97;4998915;28;1012;-56
2023/07/17 11:09:00;;;;;;;;;;;;;;;17.18;47.62;101047.16;4998899;28;1182;-55
2023/07/17 11:11:26;;;;;;;;;;;;;;;17.21;47.79;101039.22;4997497;28;1080;-56
2023/07/17 11:13:54;;;;;;;;;;;;;;;17.25;47.66;101048.56;4998184;28;1060;-56
2023/07/17 11:16:20;;;;;;;;;;;;;;;17.24;47.88;101048.84;4997758;28;1036;-56
2023/07/17 11:18:46;;;;;;;;;;;;;;;17.40;47.49;101035.94;4993541;28;1734;-56
2023/07/17 11:21:11;;;;;;;;;;;;;;;17.23;47.76;101039.75;4996673;28;858;-56
2023/07/17 11:23:55;;;;;;;;;;;;;;;17.35;47.49;101045.03;4997720;28;1977;-57
2023/07/17 11:26:34;;;;;;;;;;;;;;;17.30;47.71;101044.19;4998111;28;1175;-55
2023/07/17 11:28:59;;;;;;;;;;;;;;;17.39;47.60;101035.13;4997186;28;1093;-54
2023/07/17 11:31:26;;;;;;;;;;;;;;;17.30;47.55;101036.75;4997352;28;1087;-54
2023/07/17 11:33:58;;;;;;;;;;;;;;;17.40;47.31;101044.19;4996494;28;1412;-55
2023/07/17 11:36:24;;;;;;;;;;;;;;;17.31;47.54;101035.66;4996918;28;1075;-55
2023/07/17 11:38:49;;;;;;;;;;;;;;;17.38;47.46;101043.66;4997411;28;1195;-56
2023/07/17 11:41:15;;;;;;;;;;;;;;;17.24;47.74;101033.19;4996757;28;853;-51
2023/07/17 11:43:40;;;;;;;;;;;;;;;17.37;47.47;101044.75;4996801;28;1974;-55
2023/07/17 11:46:06;;;;;;;;;;;;;;;17.42;47.08;101042.03;4997487;28;968;-55
2023/07/17 11:48:32;;;;;;;;;;;;;;;17.34;47.73;101042.56;4997077;28;1754;-54
2023/07/17 11:50:58;;;;;;;;;;;;;;;17.24;47.96;101043.34;4996411;28;933;-55
2023/07/17 11:53:23;;;;;;;;;;;;;;;17.41;47.28;101046.66;4996637;28;1104;-54
2023/07/17 11:55:49;;;;;;;;;;;;;;;17.26;47.57;101032.91;4996895;28;1132;-55
2023/07/17 11:58:18;;;;;;;;;;;;;;;17.41;47.44;101049.41;4996869;28;1009;-54
2023/07/17 12:00:44;;;;;;;;;;;;;;;17.17;47.88;101029.06;4996580;28;910;-54
2023/07/17 12:03:09;;;;;;;;;;;;;;;17.34;47.53;101032.38;4996777;28;1902;-55
2023/07/17 12:05:35;;;;;;;;;;;;;;;17.31;47.68;101032.91;4997322;28;1093;-55
2023/07/17 12:08:01;;;;;;;;;;;;;;;17.38;47.35;101036.22;4997238;28;1099;-55
2023/07/17 12:10:26;;;;;;;;;;;;;;;17.33;47.41;101036.22;4997044;28;1056;-54
2023/07/17 12:12:52;;;;;;;;;;;;;;;17.29;47.71;101026.84;4997119;28;1001;-54
2023/07/17 12:15:17;;;;;;;;;;;;;;;17.31;47.47;101027.44;4996967;28;1000;-55
2023/07/17 12:17:43;;;;;;;;;;;;;;;17.47;48.53;101038.44;4993357;28;2223;-54
2023/07/17 12:20:09;;;;;;;;;;;;;;;17.33;48.54;101030.72;4995666;28;996;-55
2023/07/17 12:22:34;;;;;;;;;;;;;;;17.44;48.17;101032.38;4995213;28;1519;-54
2023/07/17 12:25:00;;;;;;;;;;;;;;;17.43;47.85;101025.25;4996368;28;1981;-55
2023/07/17 12:27:25;;;;;;;;;;;;;;;17.39;47.87;101035.13;4995629;28;1115;-56
2023/07/17 12:29:51;;;;;;;;;;;;;;;17.38;47.84;101033.47;4996283;28;993;-55
2023/07/17 12:32:16;;;;;;;;;;;;;;;17.43;47.63;101040.91;4995623;28;1005;-54
2023/07/17 12:34:41;;;;;;;;;;;;;;;17.43;47.69;101036.25;4994790;28;1032;-57
2023/07/17 12:37:07;;;;;;;;;;;;;;;17.53;47.61;101023.59;4996646;28;1494;-56
2023/07/17 12:39:33;;;;;;;;;;;;;;;17.49;47.87;101022.47;4996219;28;1124;-56
2023/07/17 12:41:58;;;;;;;;;;;;;;;17.48;47.96;101031.84;4996343;28;1076;-57